Stations météo

réclame
Mon MeteoGroup
Mont Aigoual, France (7560): Température de l'air & dewpoint: 12.08.2018 02:00:00 - 18.08.2018 02:00:00 (CEST)Mont Aigoual, France (7560): Vitesse du vent & gusts: 12.08.2018 02:00:00 - 18.08.2018 02:00:00 (CEST)Mont Aigoual, France (7560): Direction du vent: 12.08.2018 02:00:00 - 18.08.2018 02:00:00 (CEST)Mont Aigoual, France (7560): visibility: 12.08.2018 02:00:00 - 18.08.2018 02:00:00 (CEST)Mont Aigoual, France (7560): Quantités de précipitations: 12.08.2018 02:00:00 - 18.08.2018 02:00:00 (CEST)
Date & Time tt [°C] td [°C] ff [km/h] ff [knt] fx [km/h] fx [knt] dd vv [km] rr [mm]
18.08.2018 02:00:00 10,6 10,6 31 17 43 23 NW 0,1 0,2
18.08.2018 01:00:00 10,6 10,6 34 18 46 25 NW 0,1 0,0
18.08.2018 00:00:00 10,5 10,5 29 16 46 25 NW 0,1 0,0
17.08.2018 23:00:00 10,8 10,8 36 19 46 25 NW 0,1 0,0
17.08.2018 22:00:00 10,9 10,9 35 19 55 30 NNW 0,8 0,0
17.08.2018 21:00:00 11,0 11,0 38 20 54 29 NNW 0,3 0,0
17.08.2018 20:00:00 11,8 11,8 37 20 61 33 NNW 0,1 0,0
17.08.2018 19:00:00 12,0 12,0 41 22 56 30 NW 0,1 0,0
17.08.2018 18:00:00 12,8 12,5 35 19 50 27 NW 0,7 0,0
17.08.2018 17:00:00 13,0 11,9 36 20 57 31 N 20 0,0
17.08.2018 16:00:00 11,9 11,9 43 23 57 31 NNW 0,1 0,0
17.08.2018 15:00:00 12,2 12,2 41 22 53 29 NW 0,1 0,2
17.08.2018 14:00:00 12,0 12,0 41 22 63 34 NW 0,3 0,0
17.08.2018 13:00:00 12,0 12,0 47 25 62 33 NW - 0,0
17.08.2018 12:00:00 12,5 12,5 40 22 50 27 NW - 0,0
17.08.2018 11:00:00 13,2 13,2 38 20 46 25 NW - 0,0
17.08.2018 10:00:00 13,1 12,9 35 19 45 24 NW 0,5 0,0
17.08.2018 09:00:00 13,1 12,9 35 19 45 24 NW 0,9 0,0
17.08.2018 08:00:00 13,2 12,4 35 19 40 22 NW 18 0,0
17.08.2018 07:00:00 12,6 12,6 32 17 42 23 NW 0,2 0,0
17.08.2018 06:00:00 12,8 12,2 32 17 38 20 NW 12 0,0
17.08.2018 05:00:00 13,6 12,2 30 16 40 22 NW 20 0,0
17.08.2018 04:00:00 13,8 12,2 30 16 41 22 NW 20 0,0
17.08.2018 03:00:00 13,9 12,3 31 17 36 19 NW 20 0,0
17.08.2018 02:00:00 14,3 12,3 27 15 35 19 NW 20 0,0
17.08.2018 01:00:00 15,0 11,8 27 15 33 18 NW 20 0,0
17.08.2018 00:00:00 15,3 11,7 20 11 34 19 NW 20 0,0
16.08.2018 23:00:00 15,1 12,4 24 13 32 17 NW 20 0,0
16.08.2018 22:00:00 15,7 11,9 21 11 28 15 WSW 20 0,0
16.08.2018 21:00:00 15,6 12,3 16 8 25 13 SW 20 0,0
16.08.2018 20:00:00 16,6 12,5 15 8 34 19 S 20 0,0
16.08.2018 19:00:00 18,0 12,4 29 16 38 20 S 20 0,0
16.08.2018 18:00:00 19,0 11,8 21 11 37 20 S 20 0,0
16.08.2018 17:00:00 19,5 12,0 18 10 35 19 S 20 0,0
16.08.2018 16:00:00 19,4 11,9 19 10 42 23 S 20 0,0
16.08.2018 15:00:00 19,3 12,6 22 12 37 20 S 19 0,0
16.08.2018 14:00:00 18,7 12,7 20 11 34 18 S 20 0,0
16.08.2018 13:00:00 17,8 12,0 17 9 36 19 S 20 0,0
16.08.2018 12:00:00 17,0 11,7 16 9 29 16 S 20 0,0
16.08.2018 11:00:00 16,2 11,8 11 6 28 15 S 20 0,0
16.08.2018 10:00:00 15,2 11,8 9 5 23 13 E 20 0,0
16.08.2018 09:00:00 14,1 10,9 15 8 28 15 NE 20 0,0
16.08.2018 08:00:00 13,7 10,5 14 8 19 10 NNE 20 0,0
16.08.2018 07:00:00 12,9 10,1 12 6 22 12 NNE 20 0,0
16.08.2018 06:00:00 13,1 9,9 14 8 18 10 NNE 20 0,0
16.08.2018 05:00:00 13,3 9,0 10 6 16 9 NE 20 0,0
16.08.2018 04:00:00 13,5 10,1 13 7 17 9 SE 20 0,0
16.08.2018 03:00:00 13,9 10,5 8 5 9 5 SE 20 0,0
16.08.2018 02:00:00 14,3 10,9 4 2 11 6 ENE 20 0,0
16.08.2018 01:00:00 14,7 10,7 8 5 10 5 N 20 0,0
16.08.2018 00:00:00 14,8 11,0 3 2 11 6 SSW 20 0,0
15.08.2018 23:00:00 14,9 11,1 11 6 16 9 S 20 0,0
15.08.2018 22:00:00 15,5 11,3 10 6 17 9 S 20 0,0
15.08.2018 21:00:00 16,1 11,5 8 4 15 8 SSE 20 0,0
15.08.2018 20:00:00 17,6 10,9 6 3 18 10 E 20 0,0
15.08.2018 19:00:00 18,4 10,2 2 1 12 7 E 20 0,0
15.08.2018 18:00:00 19,1 10,4 2 1 14 8 S 20 0,0
15.08.2018 17:00:00 19,6 10,6 5 3 27 14 S 20 0,0
15.08.2018 16:00:00 19,0 11,1 4 2 21 12 SSE 20 0,0
15.08.2018 15:00:00 18,2 10,6 3 2 15 8 E 20 0,0
15.08.2018 14:00:00 17,7 10,3 5 3 18 10 NE 18 0,0
15.08.2018 13:00:00 16,6 8,8 8 4 20 11 NE 18 0,0
15.08.2018 12:00:00 15,6 7,9 11 6 22 12 NNE 20 0,0
15.08.2018 11:00:00 14,5 8,4 8 4 24 13 NNE 20 0,0
15.08.2018 10:00:00 13,8 7,8 20 11 39 21 N 20 0,0
15.08.2018 09:00:00 12,3 7,0 34 18 44 24 N 20 0,0
15.08.2018 08:00:00 11,0 6,9 35 19 46 25 N 20 0,0
15.08.2018 07:00:00 8,9 7,3 40 22 58 31 N 20 0,0
15.08.2018 06:00:00 8,6 7,7 50 27 81 44 N 20 0,0
15.08.2018 05:00:00 8,9 7,5 66 36 87 47 N 20 0,0
15.08.2018 04:00:00 8,9 7,7 58 31 82 44 N 20 0,0
15.08.2018 03:00:00 9,1 7,9 55 30 86 46 N 20 0,0
15.08.2018 02:00:00 9,6 7,5 53 29 85 46 N 20 0,0
15.08.2018 01:00:00 10,2 6,9 60 32 108 58 N 20 0,0
15.08.2018 00:00:00 10,2 8,0 81 44 108 58 N 20 0,0
14.08.2018 23:00:00 10,4 9,0 63 34 91 49 N 20 0,0
14.08.2018 22:00:00 11,0 9,3 50 27 74 40 N 20 0,0
14.08.2018 21:00:00 11,4 10,8 54 29 74 40 N 20 0,0
14.08.2018 20:00:00 12,5 10,9 52 28 74 40 NNW 20 0,0
14.08.2018 19:00:00 12,8 11,0 50 27 80 43 N 20 0,0
14.08.2018 18:00:00 13,6 10,6 50 27 78 42 N 20 0,0
14.08.2018 17:00:00 14,0 11,0 49 26 72 39 NNW 20 0,0
14.08.2018 16:00:00 14,2 11,0 45 24 70 38 N 20 0,0
14.08.2018 15:00:00 14,1 11,1 39 21 66 35 N 20 0,0
14.08.2018 14:00:00 12,6 10,7 38 20 66 36 N 20 0,0
14.08.2018 13:00:00 11,9 10,3 43 23 63 34 N 20 0,0
14.08.2018 12:00:00 10,8 9,4 48 26 87 47 N 20 0,0
14.08.2018 11:00:00 9,6 9,1 46 25 75 40 NNW 20 0,0
14.08.2018 10:00:00 8,9 8,9 56 30 82 45 NNW 3,0 0,2
14.08.2018 09:00:00 8,8 8,8 49 27 79 42 NNW 0,2 0,0
14.08.2018 08:00:00 8,4 8,4 48 26 77 42 NNW 0,2 0,0
14.08.2018 07:00:00 8,4 8,4 46 25 74 40 NNW 0,1 0,0
14.08.2018 06:00:00 8,9 8,9 29 16 80 43 NNW 0,1 0,0
14.08.2018 05:00:00 9,8 9,8 51 28 82 44 NW 0,1 0,0
14.08.2018 04:00:00 10,5 10,5 39 21 83 45 NNW 0,1 0,2
14.08.2018 03:00:00 10,4 10,4 58 31 95 51 NW 0,1 0,0
14.08.2018 02:00:00 10,7 10,7 63 34 89 48 NW 0,1 0,2
14.08.2018 01:00:00 11,1 11,1 44 24 71 38 NW 0,1 0,0
14.08.2018 00:00:00 10,9 10,9 44 24 72 39 NNW 0,1 0,0
13.08.2018 23:00:00 10,8 10,8 53 29 82 44 NNW 0,1 0,0
13.08.2018 22:00:00 10,9 10,9 48 26 79 42 NNW 0,1 0,0
13.08.2018 21:00:00 11,3 11,1 42 23 62 34 NNW 0,2 0,0
13.08.2018 20:00:00 12,0 11,7 29 16 56 31 NNW 0,2 0,0
13.08.2018 19:00:00 12,8 12,3 39 21 56 30 NW 1,1 0,0
13.08.2018 18:00:00 14,5 13,0 32 17 43 23 NW 20 0,0
13.08.2018 17:00:00 15,3 13,0 22 12 35 19 NW 20 0,0
13.08.2018 16:00:00 15,8 13,8 21 12 44 24 WNW 19 0,0
13.08.2018 15:00:00 17,3 13,0 16 9 35 19 SSW 20 0,0
13.08.2018 14:00:00 16,2 12,6 8 4 27 15 SSE 20 0,0
13.08.2018 13:00:00 15,8 12,4 16 8 27 14 S 20 0,0
13.08.2018 12:00:00 14,9 12,9 8 5 33 18 W 20 0,0
13.08.2018 11:00:00 13,9 12,5 15 8 28 15 NNW 20 0,0
13.08.2018 10:00:00 13,4 11,5 17 9 33 18 NNW 20 0,0
13.08.2018 09:00:00 13,3 11,0 22 12 50 27 W 20 0,0
13.08.2018 08:00:00 12,7 9,7 35 19 42 23 NW 20 0,0
13.08.2018 07:00:00 13,6 8,4 16 9 38 20 NNW 20 0,0
13.08.2018 06:00:00 11,8 10,0 37 20 56 30 NNW 20 0,0
13.08.2018 05:00:00 12,5 9,3 35 19 49 27 NNW 20 0,0
13.08.2018 04:00:00 12,7 10,2 26 14 74 40 SSW 20 0,0
13.08.2018 03:00:00 14,4 8,8 39 21 85 46 SSW 20 0,2
13.08.2018 02:00:00 15,2 8,4 61 33 97 53 S 12 2,4
13.08.2018 01:00:00 13,7 10,1 52 28 119 64 WSW 7 5,5
13.08.2018 00:00:00 12,2 11,6 43 23 102 55 WSW 0,3 2,0
12.08.2018 23:00:00 15,0 15,0 44 24 61 33 S 0,1 0,0
12.08.2018 22:00:00 14,9 14,7 35 19 48 26 S - 0,0
12.08.2018 21:00:00 15,2 14,4 35 19 50 27 S 0,1 0,0
12.08.2018 20:00:00 16,2 15,7 29 16 54 29 S 0,1 0,0
12.08.2018 19:00:00 17,5 15,7 34 18 56 30 S 13 0,0
12.08.2018 18:00:00 19,0 11,6 29 16 51 28 S 20 0,0
12.08.2018 17:00:00 19,9 10,9 30 16 47 25 S 20 0,0
12.08.2018 16:00:00 20,0 11,2 27 15 49 27 S 20 0,0
12.08.2018 15:00:00 19,9 11,1 28 15 45 24 S 20 0,0
12.08.2018 14:00:00 19,1 11,4 26 14 39 21 S 20 0,0
12.08.2018 13:00:00 18,4 10,7 20 11 32 17 S 20 0,0
12.08.2018 12:00:00 18,0 10,6 16 8 26 14 S 20 0,0
12.08.2018 11:00:00 17,8 10,7 10 6 32 17 S 20 0,0
12.08.2018 10:00:00 17,1 11,1 16 9 34 18 SW 20 0,0
12.08.2018 09:00:00 15,8 10,1 17 9 38 20 WSW 20 0,0
12.08.2018 08:00:00 15,3 8,3 30 16 42 23 W 20 0,0
12.08.2018 07:00:00 15,2 3,3 32 18 49 26 WSW 20 0,0
12.08.2018 06:00:00 15,5 1,2 34 19 46 25 WSW 20 0,0
12.08.2018 05:00:00 15,3 1,4 31 17 39 21 WSW 20 0,0
12.08.2018 04:00:00 15,3 -0,9 29 16 38 21 W 20 0,0
12.08.2018 03:00:00 15,2 -0,6 27 15 34 18 WSW 20 0,0
12.08.2018 02:00:00 14,7 6,0 20 11 26 14 SW 20 0,0

tt = Température de l'air
td = dewpoint
ff = Vitesse du vent
fx = gusts
dd = Direction du vent
vv = visibility
rr = Quantités de précipitations

stations d'obs. à proximité